Time;durP1;ratioP1;P1;durP2;ratioP2;P2;SDS_P1;SDS_P2;PMS_P1;PMS_P2;Temp;Humidity;BMP_temperature;BMP_pressure;BME280_temperature;BME280_humidity;BME280_pressure;Samples;Min_cycle;Max_cycle;Signal;HPM_P1;HPM_P2
2021/04/11 00:00:41;;;;;;;3.90;3.00;;;4.20;99.90;;;;;;4940550;29;20059;-86
2021/04/11 00:03:11;;;;;;;8.43;2.83;;;4.00;99.90;;;;;;4916530;29;20059;-84
2021/04/11 00:05:41;;;;;;;10.53;3.33;;;4.10;99.90;;;;;;4913515;29;20054;-87
2021/04/11 00:08:12;;;;;;;15.15;7.28;;;4.00;99.90;;;;;;4927844;29;20408;-87
2021/04/11 00:10:43;;;;;;;9.68;3.15;;;4.10;99.90;;;;;;4927754;29;20052;-86
2021/04/11 00:13:12;;;;;;;;;;;4.20;99.90;;;;;;4917488;29;20059;-83
2021/04/11 00:15:40;;;;;;;6.90;2.75;;;;;;;;;;4933412;29;19934;-83
2021/04/11 00:18:07;;;;;;;5.03;2.90;;;;;;;;;;4923070;29;20140;-86
2021/04/11 00:20:35;;;;;;;4.18;2.00;;;;;;;;;;4949891;29;20283;-85
2021/04/11 00:23:03;;;;;;;10.57;3.03;;;;;;;;;;4948533;29;20071;-82
2021/04/11 00:25:32;;;;;;;6.38;2.30;;;3.90;99.90;;;;;;4928922;29;20055;-83
2021/04/11 00:28:00;;;;;;;9.10;4.25;;;;;;;;;;4933718;29;20055;-85
2021/04/11 00:30:30;;;;;;;13.88;2.80;;;;;;;;;;4885906;29;20043;-82
2021/04/11 00:33:00;;;;;;;8.90;2.58;;;6.00;99.90;;;;;;4917254;29;20066;-82
2021/04/11 00:35:28;;;;;;;20.23;3.63;;;;;;;;;;4931113;29;20044;-81
2021/04/11 00:37:55;;;;;;;11.57;3.83;;;;;;;;;;4922089;29;20527;-84
2021/04/11 00:40:35;;;;;;;9.85;4.45;;;3.70;99.90;;;;;;4915334;29;20060;-83
2021/04/11 00:43:11;;;;;;;15.77;3.00;;;3.50;99.90;;;;;;4933401;29;20075;-83
2021/04/11 00:45:58;;;;;;;6.70;2.90;;;3.50;99.90;;;;;;4942896;29;20601;-83
2021/04/11 00:48:27;;;;;;;10.50;3.65;;;3.50;99.90;;;;;;4929278;29;20059;-83
2021/04/11 00:51:06;;;;;;;8.75;3.13;;;3.50;99.90;;;;;;4941143;29;20059;-84
2021/04/11 00:53:35;;;;;;;7.93;2.78;;;;;;;;;;4900079;29;20056;-83
2021/04/11 00:56:04;;;;;;;16.52;2.67;;;3.30;99.90;;;;;;4943634;29;20060;-83
2021/04/11 00:58:33;;;;;;;2.67;2.22;;;;;;;;;;4914281;29;20380;-83
2021/04/11 01:01:03;;;;;;;9.00;3.90;;;3.40;99.90;;;;;;4937043;29;20043;-83
2021/04/11 01:03:34;;;;;;;10.95;3.25;;;3.30;99.90;;;;;;4924827;29;20455;-82
2021/04/11 01:06:04;;;;;;;;;;;3.30;99.90;;;;;;4935984;29;20055;-81
2021/04/11 01:08:33;;;;;;;5.10;2.65;;;3.20;99.90;;;;;;4925820;29;20354;-83
2021/04/11 01:11:18;;;;;;;4.15;3.03;;;3.00;99.90;;;;;;4934185;29;20052;-83
2021/04/11 01:13:53;;;;;;;4.72;2.47;;;3.20;99.90;;;;;;4909341;29;20048;-81
2021/04/11 01:16:21;;;;;;;9.13;3.05;;;;;;;;;;4918145;29;20048;-83
2021/04/11 01:18:52;;;;;;;10.83;2.63;;;;;;;;;;4910372;29;20069;-82
2021/04/11 01:21:39;;;;;;;8.27;2.80;;;;;;;;;;4908723;29;20305;-83
2021/04/11 01:24:15;;;;;;;11.32;2.65;;;3.30;99.90;;;;;;4945924;29;20055;-82
2021/04/11 01:26:51;;;;;;;6.80;2.58;;;3.00;99.90;;;;;;4938277;29;20055;-82
2021/04/11 01:29:19;;;;;;;7.80;3.40;;;;;;;;;;4928852;29;20085;-83
2021/04/11 01:31:48;;;;;;;5.68;3.13;;;;;;;;;;4937644;29;20058;-83
2021/04/11 01:34:18;;;;;;;6.40;3.28;;;;;;;;;;4920399;29;20091;-81
2021/04/11 01:36:51;;;;;;;6.75;3.20;;;2.80;99.90;;;;;;4945765;29;20065;-84
2021/04/11 01:39:29;;;;;;;15.95;4.63;;;2.90;99.90;;;;;;4935963;29;20062;-82
2021/04/11 01:42:00;;;;;;;7.80;3.58;;;2.80;99.90;;;;;;4935027;29;20458;-83
2021/04/11 01:44:32;;;;;;;6.05;3.03;;;2.80;99.90;;;;;;4923751;29;20667;-82
2021/04/11 01:47:00;;;;;;;7.40;2.63;;;;;;;;;;4932072;29;20066;-82
2021/04/11 01:49:33;;;;;;;7.07;2.72;;;;;;;;;;4910850;29;20506;-82
2021/04/11 01:52:10;;;;;;;7.20;4.43;;;2.80;99.90;;;;;;4941065;29;20058;-86
2021/04/11 01:54:38;;;;;;;8.35;4.65;;;;;;;;;;4907703;29;20055;-84
2021/04/11 01:57:10;;;;;;;9.65;4.05;;;2.70;99.90;;;;;;4932187;29;20051;-84
2021/04/11 01:59:39;;;;;;;11.38;5.00;;;;;;;;;;4919867;29;20039;-85
2021/04/11 02:02:07;;;;;;;7.85;3.72;;;2.60;99.90;;;;;;4949074;28;20066;-86
2021/04/11 02:04:35;;;;;;;7.97;3.13;;;;;;;;;;4956670;29;20047;-83
2021/04/11 02:07:05;;;;;;;7.50;4.13;;;2.70;99.90;;;;;;4940118;29;20066;-83
2021/04/11 02:09:42;;;;;;;7.30;4.18;;;2.70;99.90;;;;;;4899656;29;20054;-82
2021/04/11 02:12:26;;;;;;;6.50;3.15;;;;;;;;;;4938453;29;20063;-83
2021/04/11 02:15:01;;;;;;;3.92;2.50;;;;;;;;;;4938657;29;20055;-83
2021/04/11 02:17:28;;;;;;;4.70;2.35;;;;;;;;;;4929716;29;20066;-84
2021/04/11 02:19:56;;;;;;;6.15;2.83;;;;;;;;;;4914823;29;20048;-82
2021/04/11 02:22:31;;;;;;;7.07;3.17;;;;;;;;;;4918886;29;20055;-83
2021/04/11 02:25:14;;;;;;;4.65;2.97;;;2.40;99.90;;;;;;4927393;29;20407;-83
2021/04/11 02:27:44;;;;;;;7.90;2.58;;;;;;;;;;4922908;29;20051;-83
2021/04/11 02:30:15;;;;;;;11.70;3.13;;;2.40;99.90;;;;;;4919431;29;20051;-83
2021/04/11 02:32:43;;;;;;;5.07;3.15;;;;;;;;;;4921724;29;20052;-83
2021/04/11 02:35:15;;;;;;;7.22;2.80;;;2.50;99.90;;;;;;4919983;29;20070;-82
2021/04/11 02:37:45;;;;;;;8.05;3.35;;;2.40;99.90;;;;;;4929317;29;20055;-82
2021/04/11 02:40:21;;;;;;;7.47;3.70;;;2.40;99.90;;;;;;4931779;29;20051;-83
2021/04/11 02:42:51;;;;;;;6.95;4.75;;;;;;;;;;4932059;29;20432;-83
2021/04/11 02:45:25;;;;;;;5.20;2.85;;;1.90;99.90;;;;;;4943231;29;20478;-84
2021/04/11 02:47:58;;;;;;;10.43;3.10;;;;;;;;;;4922745;29;20055;-82
2021/04/11 02:50:29;;;;;;;9.40;3.10;;;2.40;99.90;;;;;;4921072;29;20040;-82
2021/04/11 02:53:02;;;;;;;4.00;2.80;;;2.20;99.90;;;;;;4948830;29;20047;-82
2021/04/11 02:55:33;;;;;;;13.27;3.70;;;2.20;99.90;;;;;;4933591;29;20055;-83
2021/04/11 02:58:02;;;;;;;6.78;2.78;;;;;;;;;;4950899;28;20067;-84
2021/04/11 03:00:36;;;;;;;12.03;3.33;;;2.10;99.90;;;;;;4926662;29;20055;-84
2021/04/11 03:03:08;;;;;;;8.95;3.28;;;;;;;;;;4923437;29;20510;-83
2021/04/11 03:05:37;;;;;;;10.70;2.80;;;;;;;;;;4934399;29;20050;-85
2021/04/11 03:08:07;;;;;;;13.77;3.25;;;1.80;99.90;;;;;;4926633;29;20067;-83
2021/04/11 03:11:07;;;;;;;7.97;2.97;;;2.10;99.90;;;;;;4910589;29;20068;-84
2021/04/11 03:13:36;;;;;;;3.17;2.70;;;2.10;99.90;;;;;;4915043;29;20070;-83
2021/04/11 03:16:05;;;;;;;11.50;2.92;;;;;;;;;;4897227;29;20060;-83
2021/04/11 03:18:33;;;;;;;6.07;3.03;;;2.00;99.90;;;;;;4950787;29;20070;-84
2021/04/11 03:21:03;;;;;;;9.88;6.07;;;;;;;;;;4930915;29;20055;-82
2021/04/11 03:23:32;;;;;;;17.00;4.45;;;2.00;99.90;;;;;;4947455;29;20411;-83
2021/04/11 03:26:26;;;;;;;8.75;3.53;;;1.80;99.90;;;;;;4930978;29;20055;-83
2021/04/11 03:29:26;;;;;;;7.43;2.67;;;2.10;99.90;;;;;;4915131;29;20652;-83
2021/04/11 03:32:06;;;;;;;10.75;4.75;;;2.10;99.90;;;;;;4922902;29;20523;-84
2021/04/11 03:34:39;;;;;;;8.57;3.13;;;2.00;99.90;;;;;;4936607;29;20047;-82
2021/04/11 03:37:11;;;;;;;8.65;3.35;;;2.00;99.90;;;;;;4949444;29;20051;-84
2021/04/11 03:39:39;;;;;;;5.65;3.03;;;;;;;;;;4906673;29;20055;-83
2021/04/11 03:42:08;;;;;;;4.88;2.75;;;2.00;99.90;;;;;;4950083;29;20075;-83
2021/04/11 03:44:38;;;;;;;10.68;3.90;;;;;;;;;;4937264;29;20061;-82
2021/04/11 03:47:19;;;;;;;11.70;4.53;;;2.00;99.90;;;;;;4947090;29;20059;-83
2021/04/11 03:50:12;;;;;;;6.25;3.05;;;2.00;99.90;;;;;;4929895;29;20051;-83
2021/04/11 03:53:12;;;;;;;5.18;2.53;;;1.90;99.90;;;;;;4920357;29;20056;-83
2021/04/11 03:55:47;;;;;;;7.57;2.85;;;2.00;99.90;;;;;;4926936;29;20056;-82
2021/04/11 03:58:37;;;;;;;5.32;2.78;;;1.80;99.90;;;;;;4906519;29;20056;-88
2021/04/11 04:01:18;;;;;;;14.82;5.28;;;1.90;99.90;;;;;;4938715;29;20411;-84
2021/04/11 04:03:48;;;;;;;15.45;3.42;;;1.90;99.90;;;;;;4916473;29;20075;-85
2021/04/11 04:06:24;;;;;;;5.20;2.90;;;1.90;99.90;;;;;;4915774;29;20050;-84
2021/04/11 04:08:53;;;;;;;5.65;2.60;;;;;;;;;;4915677;29;20436;-82
2021/04/11 04:12:04;;;;;;;4.40;2.90;;;1.90;99.90;;;;;;4903314;29;20047;-83
2021/04/11 04:14:35;;;;;;;5.53;2.85;;;;;;;;;;4889798;29;20052;-82
2021/04/11 04:17:12;;;;;;;9.93;2.83;;;;;;;;;;4922031;29;20389;-84
2021/04/11 04:19:58;;;;;;;9.98;3.80;;;1.70;99.90;;;;;;4931215;29;20063;-85
2021/04/11 04:22:56;;;;;;;8.20;3.22;;;1.70;99.90;;;;;;4921545;29;20122;-83
2021/04/11 04:25:37;;;;;;;7.30;3.47;;;;;;;;;;4916663;29;20132;-82
2021/04/11 04:28:15;;;;;;;6.45;3.08;;;;;;;;;;4907847;29;20071;-82
2021/04/11 04:30:54;;;;;;;14.85;3.95;;;1.50;99.90;;;;;;4935161;29;20050;-83
2021/04/11 04:33:36;;;;;;;11.23;4.03;;;1.60;99.90;;;;;;4938876;29;20066;-83
2021/04/11 04:36:26;;;;;;;8.85;3.47;;;1.70;99.90;;;;;;4956264;29;20052;-83
2021/04/11 04:38:59;;;;;;;7.03;2.92;;;;;;;;;;4949825;29;20039;-82
2021/04/11 04:42:08;;;;;;;6.88;3.30;;;1.70;99.90;;;;;;4933520;29;20063;-84
2021/04/11 04:44:39;;;;;;;5.30;3.75;;;;;;;;;;4924743;29;20051;-84
2021/04/11 04:47:14;;;;;;;3.45;3.15;;;1.60;99.90;;;;;;4937253;29;20070;-82
2021/04/11 04:50:21;;;;;;;5.47;2.83;;;1.50;99.90;;;;;;4907298;29;20052;-83
2021/04/11 04:53:24;;;;;;;4.97;2.70;;;1.60;99.90;;;;;;4924218;29;20055;-82
2021/04/11 04:55:59;;;;;;;21.25;3.95;;;1.60;99.90;;;;;;4911765;29;20567;-82
2021/04/11 04:58:35;;;;;;;12.55;5.35;;;1.60;99.90;;;;;;4908870;29;20508;-86
2021/04/11 05:01:14;;;;;;;10.07;2.95;;;1.60;99.90;;;;;;4932001;29;20044;-83
2021/04/11 05:03:51;;;;;;;4.15;2.90;;;1.50;99.90;;;;;;4906078;29;20062;-83
2021/04/11 05:06:27;;;;;;;9.13;4.22;;;1.60;99.90;;;;;;4887531;29;20499;-81
2021/04/11 05:09:17;;;;;;;12.40;4.20;;;1.50;99.90;;;;;;4941882;29;20521;-83
2021/04/11 05:11:55;;;;;;;11.85;3.28;;;1.50;99.90;;;;;;4915232;29;20044;-82
2021/04/11 05:14:38;;;;;;;11.15;3.47;;;1.60;99.90;;;;;;4928817;29;20411;-84
2021/04/11 05:17:16;;;;;;;9.60;3.42;;;1.50;99.90;;;;;;4929266;29;20369;-84
2021/04/11 05:19:49;;;;;;;9.35;5.90;;;1.50;99.90;;;;;;4912297;29;20056;-84
2021/04/11 05:22:35;;;;;;;14.77;4.20;;;1.90;99.90;;;;;;4932505;29;20051;-83
2021/04/11 05:25:26;;;;;;;6.05;3.58;;;1.60;99.90;;;;;;4912475;29;20496;-84
2021/04/11 05:28:20;;;;;;;8.55;3.92;;;1.60;99.90;;;;;;4939255;29;20067;-84
2021/04/11 05:31:00;;;;;;;9.70;4.60;;;1.50;99.90;;;;;;4928310;29;20067;-84
2021/04/11 05:33:28;;;;;;;7.15;3.85;;;;;;;;;;4932848;29;20051;-83
2021/04/11 05:36:20;;;;;;;6.53;3.72;;;1.50;99.90;;;;;;4936726;29;20510;-83
2021/04/11 05:39:00;;;;;;;8.10;3.75;;;1.60;99.90;;;;;;4932708;29;20507;-84
2021/04/11 05:42:11;;;;;;;11.82;5.88;;;1.60;99.90;;;;;;4895409;29;20044;-83
2021/04/11 05:44:39;;;;;;;6.35;3.25;;;;;;;;;;4911957;29;20048;-83
2021/04/11 05:47:28;;;;;;;6.82;4.03;;;1.60;99.90;;;;;;4941796;29;20059;-82
2021/04/11 05:50:02;;;;;;;8.02;3.55;;;;;;;;;;4939573;29;20411;-82
2021/04/11 05:53:03;;;;;;;11.50;4.68;;;1.80;99.90;;;;;;4916348;29;20062;-83
2021/04/11 05:55:35;;;;;;;9.93;3.65;;;1.90;99.90;;;;;;4919355;29;20063;-82
2021/04/11 05:58:09;;;;;;;8.18;4.35;;;1.80;99.90;;;;;;4929536;29;20066;-83
2021/04/11 06:00:46;;;;;;;8.55;4.88;;;2.00;99.90;;;;;;4913958;29;20527;-84
2021/04/11 06:03:20;;;;;;;8.57;3.75;;;2.10;99.90;;;;;;4940295;29;20062;-83
2021/04/11 06:06:07;;;;;;;10.88;4.75;;;2.00;99.90;;;;;;4949051;28;20052;-82
2021/04/11 06:08:49;;;;;;;9.43;3.33;;;2.10;99.90;;;;;;4930590;29;20415;-82
2021/04/11 06:11:50;;;;;;;6.63;3.92;;;2.20;99.90;;;;;;4932572;29;20056;-85
2021/04/11 06:14:31;;;;;;;17.20;4.40;;;2.20;99.90;;;;;;4923581;29;20059;-82
2021/04/11 06:16:59;;;;;;;6.45;4.72;;;;;;;;;;4927248;29;20060;-82
2021/04/11 06:19:27;;;;;;;9.48;3.80;;;;;;;;;;4911781;29;20055;-82
2021/04/11 06:22:02;;;;;;;11.02;7.35;;;;;;;;;;4934065;29;20488;-82
2021/04/11 06:24:42;;;;;;;12.48;3.90;;;2.30;99.90;;;;;;4937637;29;20044;-83
2021/04/11 06:27:25;;;;;;;11.35;3.90;;;2.40;99.90;;;;;;4934928;29;20059;-88
2021/04/11 06:29:58;;;;;;;9.90;3.92;;;2.40;99.90;;;;;;4934865;29;20566;-83
2021/04/11 06:32:31;;;;;;;9.43;4.38;;;2.60;99.90;;;;;;4952033;29;20062;-82
2021/04/11 06:35:02;;;;;;;11.05;4.72;;;2.60;99.90;;;;;;4921859;29;20047;-83
2021/04/11 06:37:32;;;;;;;9.93;5.75;;;2.70;99.90;;;;;;4931254;29;20055;-82
2021/04/11 06:40:02;;;;;;;6.20;3.22;;;2.70;99.90;;;;;;4943417;29;20074;-81
2021/04/11 06:43:27;;;;;;;4.85;3.10;;;2.80;99.90;;;;;;4938047;29;20062;-83
2021/04/11 06:46:06;;;;;;;6.75;3.92;;;3.00;99.90;;;;;;4867530;29;20103;-83
2021/04/11 06:48:54;;;;;;;7.78;4.38;;;2.90;99.90;;;;;;4838659;29;20053;-83
2021/04/11 06:51:40;;;;;;;11.18;3.83;;;3.20;99.90;;;;;;4926192;29;20062;-82
2021/04/11 06:54:45;;;;;;;6.40;3.88;;;2.90;99.90;;;;;;4893806;29;20062;-82
2021/04/11 06:57:31;;;;;;;8.05;3.85;;;3.00;99.90;;;;;;4920315;29;20071;-82
2021/04/11 07:00:07;;;;;;;14.80;4.38;;;3.10;99.90;;;;;;4910349;29;20052;-81
2021/04/11 07:02:53;;;;;;;14.63;3.50;;;3.20;99.90;;;;;;4934873;29;20052;-82
2021/04/11 07:05:55;;;;;;;4.45;3.80;;;3.20;99.90;;;;;;4941200;29;20051;-82
2021/04/11 07:09:02;;;;;;;9.30;3.95;;;3.40;99.90;;;;;;4930904;29;20063;-81
2021/04/11 07:11:45;;;;;;;9.43;3.83;;;;;;;;;;4934961;29;20055;-82
2021/04/11 07:14:29;;;;;;;8.68;3.17;;;3.50;99.90;;;;;;4944185;29;20460;-83
2021/04/11 07:17:17;;;;;;;7.13;3.80;;;3.60;99.90;;;;;;4937691;29;20483;-82
2021/04/11 07:19:45;;;;;;;15.40;4.93;;;;;;;;;;4948488;29;20059;-82
2021/04/11 07:22:33;;;;;;;8.50;3.17;;;3.80;99.90;;;;;;4924470;29;20055;-83
2021/04/11 07:25:07;;;;;;;9.65;2.97;;;;;;;;;;4935394;29;20063;-83
2021/04/11 07:28:15;;;;;;;5.88;3.13;;;3.80;99.90;;;;;;4905962;29;20051;-86
2021/04/11 07:31:00;;;;;;;5.95;4.00;;;4.00;99.90;;;;;;4936849;29;20062;-82
2021/04/11 07:33:34;;;;;;;12.25;3.13;;;4.20;99.90;;;;;;4935990;29;20365;-83
2021/04/11 07:36:24;;;;;;;4.43;2.60;;;4.30;99.90;;;;;;4917715;29;20064;-83
2021/04/11 07:39:24;;;;;;;6.65;2.95;;;4.20;99.90;;;;;;4933575;29;20054;-83
2021/04/11 07:41:51;;;;;;;4.95;4.07;;;;;;;;;;4929544;29;20052;-83
2021/04/11 07:44:25;;;;;;;3.72;2.90;;;4.50;99.90;;;;;;4929539;29;20461;-83
2021/04/11 07:47:30;;;;;;;9.38;3.25;;;4.70;99.90;;;;;;4925129;29;20056;-82
2021/04/11 07:50:07;;;;;;;6.05;3.22;;;4.80;99.90;;;;;;4929252;29;20527;-82
2021/04/11 07:52:53;;;;;;;5.78;3.28;;;5.00;99.90;;;;;;4917870;29;20427;-82
2021/04/11 07:55:21;;;;;;;7.65;3.30;;;;;;;;;;4934179;29;20063;-82
2021/04/11 07:58:17;;;;;;;11.40;3.55;;;5.10;99.90;;;;;;4915075;29;20055;-82
2021/04/11 08:00:52;;;;;;;11.27;4.90;;;;;;;;;;4932019;29;20055;-83
2021/04/11 08:03:22;;;;;;;6.72;3.03;;;5.10;99.90;;;;;;4938073;29;20059;-82
2021/04/11 08:05:50;;;;;;;7.65;2.80;;;;;;;;;;4919432;29;20067;-84
2021/04/11 08:08:52;;;;;;;13.40;3.25;;;5.10;99.90;;;;;;4925014;29;20488;-82
2021/04/11 08:11:25;;;;;;;9.82;2.78;;;5.00;99.90;;;;;;4938034;29;20051;-83
2021/04/11 08:14:17;;;;;;;6.85;3.03;;;5.00;99.90;;;;;;4925409;29;20062;-83
2021/04/11 08:16:51;;;;;;;4.70;3.72;;;5.10;99.90;;;;;;4931085;29;20059;-83
2021/04/11 08:19:52;;;;;;;5.55;2.55;;;5.30;99.90;;;;;;4925791;29;20058;-83
2021/04/11 08:22:58;;;;;;;12.13;4.57;;;4.90;99.90;;;;;;4890227;29;20085;-82
2021/04/11 08:25:26;;;;;;;9.77;3.05;;;;;;;;;;4925337;29;20294;-82
2021/04/11 08:28:23;;;;;;;6.82;2.50;;;5.50;99.90;;;;;;4918016;29;20075;-81
2021/04/11 08:31:12;;;;;;;5.05;2.38;;;5.70;99.90;;;;;;4919592;29;20071;-82
2021/04/11 08:33:40;;;;;;;6.25;2.17;;;;;;;;;;4928068;29;20056;-82
2021/04/11 08:36:19;;;;;;;6.55;2.72;;;6.10;99.90;;;;;;4928392;29;20056;-85
2021/04/11 08:39:24;;;;;;;3.65;2.85;;;5.90;99.90;;;;;;4929850;29;20092;-83
2021/04/11 08:42:09;;;;;;;6.80;1.90;;;6.10;99.90;;;;;;4904457;29;20044;-83
2021/04/11 08:45:11;;;;;;;5.07;1.98;;;6.10;99.90;;;;;;4912998;29;20051;-82
2021/04/11 08:47:51;;;;;;;9.07;2.88;;;;;;;;;;4913858;29;20055;-81
2021/04/11 08:50:30;;;;;;;3.42;2.00;;;6.30;99.90;;;;;;4922391;29;20050;-83
2021/04/11 08:53:26;;;;;;;6.30;2.35;;;6.30;99.90;;;;;;4919080;29;20052;-83
2021/04/11 08:56:19;;;;;;;3.63;2.05;;;6.30;99.90;;;;;;4936875;29;20524;-85
2021/04/11 08:59:12;;;;;;;9.13;3.03;;;6.30;99.90;;;;;;4918398;29;20323;-87
2021/04/11 09:01:45;;;;;;;7.68;2.47;;;6.20;99.90;;;;;;4916345;29;20392;-84
2021/04/11 09:04:13;;;;;;;4.35;2.08;;;;;;;;;;4926668;29;20044;-83
2021/04/11 09:06:50;;;;;;;6.47;2.42;;;6.30;99.90;;;;;;4932770;29;20207;-83
2021/04/11 09:09:33;;;;;;;7.45;2.50;;;;;;;;;;4932975;29;20051;-84
2021/04/11 09:12:01;;;;;;;4.82;2.53;;;;;;;;;;4917777;29;20055;-82
2021/04/11 09:14:46;;;;;;;7.65;2.17;;;6.40;99.90;;;;;;4915527;29;20063;-83
2021/04/11 09:17:31;;;;;;;4.20;2.25;;;6.70;99.90;;;;;;4931350;29;20060;-83
2021/04/11 09:20:12;;;;;;;5.40;1.90;;;7.00;99.90;;;;;;4938159;29;20054;-83
2021/04/11 09:22:51;;;;;;;9.90;5.25;;;7.10;99.90;;;;;;4918242;29;20051;-82
2021/04/11 09:25:30;;;;;;;10.75;5.10;;;7.30;99.90;;;;;;4927907;29;20059;-82
2021/04/11 09:28:22;;;;;;;2.92;1.60;;;7.40;99.90;;;;;;4909204;29;20055;-80
2021/04/11 09:31:05;;;;;;;2.30;1.95;;;7.80;99.90;;;;;;4924986;29;20067;-83
2021/04/11 09:33:56;;;;;;;5.85;1.60;;;7.90;99.90;;;;;;4913468;29;20237;-82
2021/04/11 09:36:53;;;;;;;4.15;1.85;;;8.00;99.90;;;;;;4913876;29;20051;-84
2021/04/11 09:39:26;;;;;;;3.25;1.77;;;8.10;99.90;;;;;;4939944;29;20059;-83
2021/04/11 09:42:38;;;;;;;2.58;2.17;;;7.90;99.90;;;;;;4911470;29;20060;-86
2021/04/11 09:45:42;;;;;;;9.02;1.90;;;8.00;99.90;;;;;;4924548;29;20051;-82
2021/04/11 09:48:23;;;;;;;6.82;1.63;;;8.20;99.90;;;;;;4925279;29;20068;-80
2021/04/11 09:51:02;;;;;;;5.18;2.20;;;8.30;99.90;;;;;;4913444;29;20059;-82
2021/04/11 09:53:44;;;;;;;6.82;2.38;;;8.20;99.90;;;;;;4929722;29;20063;-80
2021/04/11 09:56:15;;;;;;;5.43;1.83;;;;;;;;;;4927197;29;20052;-80
2021/04/11 09:58:43;;;;;;;4.82;2.05;;;;;;;;;;4924664;29;20055;-80
2021/04/11 10:01:27;;;;;;;4.13;1.90;;;8.40;98.30;;;;;;4932535;29;20056;-82
2021/04/11 10:04:08;;;;;;;8.55;1.92;;;8.20;97.20;;;;;;4916246;29;20059;-83
2021/04/11 10:07:13;;;;;;;1.98;1.65;;;8.20;97.80;;;;;;4907826;29;20063;-80
2021/04/11 10:09:59;;;;;;;4.90;2.88;;;7.90;97.60;;;;;;4927557;29;20066;-81
2021/04/11 10:12:28;;;;;;;3.13;1.90;;;;;;;;;;4931537;29;20055;-81
2021/04/11 10:15:24;;;;;;;6.38;2.20;;;7.90;97.70;;;;;;4900110;29;20055;-81
2021/04/11 10:18:17;;;;;;;5.80;1.85;;;7.90;95.80;;;;;;4931652;29;20070;-80
2021/04/11 10:21:20;;;;;;;7.93;1.83;;;7.80;95.90;;;;;;4927474;29;20048;-81
2021/04/11 10:24:08;;;;;;;2.33;1.50;;;7.90;95.00;;;;;;4927654;29;20068;-81
2021/04/11 10:26:46;;;;;;;6.45;2.40;;;7.90;97.10;;;;;;4915294;29;20411;-79
2021/04/11 10:29:18;;;;;;;6.45;1.98;;;7.90;95.90;;;;;;4910180;29;20047;-81
2021/04/11 10:31:54;;;;;;;4.82;1.85;;;7.80;93.50;;;;;;4930703;29;20055;-81
2021/04/11 10:34:33;;;;;;;9.63;2.28;;;7.80;95.80;;;;;;4928070;29;20337;-80
2021/04/11 10:37:19;;;;;;;4.85;2.47;;;7.70;93.90;;;;;;4939539;28;20787;-81
2021/04/11 10:39:59;;;;;;;6.78;1.77;;;7.70;95.60;;;;;;4930385;29;20059;-81
2021/04/11 10:42:50;;;;;;;2.35;2.15;;;7.60;93.30;;;;;;4931683;29;20510;-83
2021/04/11 10:45:34;;;;;;;5.43;1.70;;;;;;;;;;4922695;29;20051;-82
2021/04/11 10:48:29;;;;;;;2.75;1.52;;;7.70;94.10;;;;;;4911549;29;20060;-82
2021/04/11 10:51:27;;;;;;;8.50;2.15;;;7.80;93.50;;;;;;4906200;29;20059;-82
2021/04/11 10:54:17;;;;;;;3.15;2.25;;;7.80;93.80;;;;;;4916209;29;20511;-83
2021/04/11 10:57:09;;;;;;;5.20;2.28;;;8.10;95.60;;;;;;4932772;29;20067;-82
2021/04/11 10:59:40;;;;;;;2.72;1.83;;;;;;;;;;4940614;29;20411;-82
2021/04/11 11:02:40;;;;;;;3.30;2.58;;;8.50;93.20;;;;;;4913376;29;20056;-82
2021/04/11 11:05:38;;;;;;;2.42;1.85;;;8.80;92.30;;;;;;4909555;29;20052;-83
2021/04/11 11:08:42;;;;;;;3.00;2.63;;;;;;;;;;4917269;29;20296;-81
2021/04/11 11:11:46;;;;;;;4.30;2.00;;;9.20;91.10;;;;;;4859460;29;20097;-82
2021/04/11 11:14:33;;;;;;;3.13;2.28;;;9.80;88.00;;;;;;4926714;29;20058;-81
2021/04/11 11:17:29;;;;;;;5.47;2.30;;;9.50;89.60;;;;;;4932617;29;20063;-81
2021/04/11 11:20:02;;;;;;;4.32;2.08;;;9.60;87.20;;;;;;4925696;29;20075;-86
2021/04/11 11:22:52;;;;;;;3.70;2.03;;;9.90;99.00;;;;;;4912514;29;20048;-81
2021/04/11 11:25:39;;;;;;;3.45;1.95;;;9.50;88.00;;;;;;4911180;29;20055;-84
2021/04/11 11:28:19;;;;;;;6.22;2.60;;;;;;;;;;4933437;29;20048;-82
2021/04/11 11:30:49;;;;;;;9.05;1.95;;;;;;;;;;4931228;29;20067;-83
2021/04/11 11:33:45;;;;;;;4.20;2.33;;;9.40;88.10;;;;;;4911075;29;20040;-81
2021/04/11 11:36:22;;;;;;;12.10;3.25;;;9.40;85.10;;;;;;4909656;29;20301;-81
2021/04/11 11:39:01;;;;;;;4.03;2.45;;;9.50;84.50;;;;;;4929259;29;20067;-82
2021/04/11 11:41:35;;;;;;;10.95;5.55;;;;;;;;;;4926586;29;20055;-81
2021/04/11 11:44:22;;;;;;;7.55;5.38;;;9.60;83.70;;;;;;4907216;29;20048;-80
2021/04/11 11:46:53;;;;;;;2.42;1.70;;;9.50;82.60;;;;;;4905158;29;20071;-81
2021/04/11 11:49:37;;;;;;;5.32;2.80;;;9.50;84.70;;;;;;4926452;29;20062;-81
2021/04/11 11:52:08;;;;;;;3.05;2.22;;;9.60;87.90;;;;;;4926423;29;20056;-80
2021/04/11 11:54:57;;;;;;;2.00;1.63;;;9.80;83.90;;;;;;4936225;29;20169;-80
2021/04/11 11:57:48;;;;;;;4.15;2.08;;;10.30;83.10;;;;;;4924938;29;20572;-79
2021/04/11 12:00:31;;;;;;;4.05;1.50;;;10.20;85.60;;;;;;4929959;29;20059;-81
2021/04/11 12:03:33;;;;;;;4.20;2.42;;;10.30;79.70;;;;;;4902138;29;20059;-80
2021/04/11 12:06:16;;;;;;;5.40;1.80;;;;;;;;;;4920534;29;20075;-82
2021/04/11 12:08:54;;;;;;;4.85;1.90;;;;;;;;;;4914355;29;20048;-80
2021/04/11 12:11:50;;;;;;;4.40;1.92;;;10.00;76.90;;;;;;4927131;29;20052;-82
2021/04/11 12:14:30;;;;;;;3.83;1.90;;;;;;;;;;4916625;29;20043;-82
2021/04/11 12:17:17;;;;;;;4.65;2.97;;;9.90;76.10;;;;;;4940804;29;20066;-79
2021/04/11 12:19:51;;;;;;;5.57;1.95;;;;;;;;;;4939031;29;20392;-84
2021/04/11 12:22:58;;;;;;;6.78;2.22;;;10.50;76.30;;;;;;4921153;29;20064;-85
2021/04/11 12:25:30;;;;;;;4.97;1.80;;;10.30;79.00;;;;;;4932774;29;20055;-84
2021/04/11 12:28:27;;;;;;;3.22;2.47;;;10.40;77.80;;;;;;4905652;29;20052;-87
2021/04/11 12:30:56;;;;;;;2.83;1.95;;;10.50;78.50;;;;;;4934009;29;20051;-84
2021/04/11 12:33:44;;;;;;;4.30;1.80;;;10.20;78.60;;;;;;4919187;29;20048;-86
2021/04/11 12:36:14;;;;;;;3.83;1.70;;;10.10;78.80;;;;;;4901742;29;20063;-84
2021/04/11 12:39:06;;;;;;;2.10;1.90;;;9.80;77.20;;;;;;4907830;29;20052;-86
2021/04/11 12:41:40;;;;;;;2.13;1.65;;;;;;;;;;4908390;29;20063;-85
2021/04/11 12:44:24;;;;;;;1.67;1.55;;;9.30;76.90;;;;;;4905692;29;20546;-84
2021/04/11 12:46:59;;;;;;;2.30;1.58;;;10.10;73.20;;;;;;4922513;29;20048;-84
2021/04/11 12:49:52;;;;;;;3.53;1.70;;;10.30;72.70;;;;;;4911635;29;20063;-85
2021/04/11 12:52:32;;;;;;;10.80;2.10;;;10.30;77.50;;;;;;4906768;29;20048;-80
2021/04/11 12:55:21;;;;;;;4.10;2.05;;;10.30;77.50;;;;;;4922281;29;20383;-83
2021/04/11 12:58:25;;;;;;;3.72;2.22;;;10.50;76.50;;;;;;4919352;29;20044;-85
2021/04/11 13:01:01;;;;;;;2.58;1.88;;;9.90;76.00;;;;;;4944312;29;20062;-85
2021/04/11 13:03:53;;;;;;;5.88;1.60;;;;;;;;;;4912425;29;20502;-84
2021/04/11 13:07:06;;;;;;;6.72;2.17;;;10.10;73.00;;;;;;4918815;29;20064;-85
2021/04/11 13:09:59;;;;;;;4.47;1.42;;;10.50;71.60;;;;;;4909925;29;20043;-86
2021/04/11 13:12:38;;;;;;;3.63;1.88;;;;;;;;;;4902213;29;20051;-87
2021/04/11 13:15:24;;;;;;;4.20;1.88;;;;;;;;;;4936309;29;20051;-85
2021/04/11 13:17:52;;;;;;;2.60;2.17;;;;;;;;;;4914288;29;20059;-85
2021/04/11 13:20:29;;;;;;;3.22;1.80;;;;;;;;;;4923841;29;20479;-86
2021/04/11 13:23:00;;;;;;;2.40;1.40;;;;;;;;;;4933887;29;20052;-90
2021/04/11 13:25:34;;;;;;;3.72;2.10;;;11.70;71.80;;;;;;4928886;29;20496;-87
2021/04/11 13:28:23;;;;;;;7.30;2.80;;;;;;;;;;4932466;29;20058;-87
2021/04/11 13:31:12;;;;;;;2.65;1.90;;;11.50;67.00;;;;;;4920304;29;20500;-88
2021/04/11 13:34:27;;;;;;;4.85;2.28;;;11.20;71.70;;;;;;4921864;29;20059;-86
2021/04/11 13:36:59;;;;;;;3.28;2.33;;;11.10;72.00;;;;;;4856764;29;20077;-87
2021/04/11 13:39:30;;;;;;;4.30;2.13;;;;;;;;;;4894318;29;20047;-86
2021/04/11 13:42:39;;;;;;;3.95;1.95;;;11.50;71.50;;;;;;4906562;29;20056;-86
2021/04/11 13:45:11;;;;;;;2.75;1.80;;;;;;;;;;4924247;29;20053;-87
2021/04/11 13:48:17;;;;;;;4.28;2.17;;;11.50;64.50;;;;;;4911616;29;20066;-88
2021/04/11 13:51:02;;;;;;;4.07;1.63;;;11.10;69.20;;;;;;4931943;29;20043;-83
2021/04/11 13:53:47;;;;;;;1.77;1.67;;;10.90;69.70;;;;;;4930862;29;20046;-87
2021/04/11 13:56:26;;;;;;;4.97;2.05;;;11.00;66.20;;;;;;4947423;29;20050;-88
2021/04/11 13:59:03;;;;;;;3.05;1.67;;;10.80;70.30;;;;;;4937824;29;20059;-90
2021/04/11 14:02:11;;;;;;;6.15;2.17;;;10.90;70.40;;;;;;4920575;29;20055;-86
2021/04/11 14:05:11;;;;;;;4.53;2.03;;;10.90;67.40;;;;;;4898335;29;20555;-86
2021/04/11 14:07:52;;;;;;;5.53;2.30;;;10.70;68.30;;;;;;4931994;29;20062;-87
2021/04/11 14:10:43;;;;;;;5.28;1.98;;;10.70;68.80;;;;;;4951510;29;20040;-86
2021/04/11 14:13:32;;;;;;;2.75;2.22;;;10.80;69.70;;;;;;4916337;29;20290;-88
2021/04/11 14:16:21;;;;;;;3.63;2.50;;;;;;;;;;4951442;29;20055;-88
2021/04/11 14:19:00;;;;;;;4.88;1.80;;;;;;;;;;4922262;29;20070;-87
2021/04/11 14:21:38;;;;;;;3.58;2.10;;;;;;;;;;4933780;29;20044;-87
2021/04/11 14:24:09;;;;;;;3.70;2.10;;;;;;;;;;4944899;29;20059;-88
2021/04/11 14:26:42;;;;;;;7.35;2.58;;;;;;;;;;4916618;29;20052;-87
2021/04/11 14:29:17;;;;;;;3.35;1.98;;;;;;;;;;4912892;29;20047;-86
2021/04/11 14:32:13;;;;;;;4.95;2.28;;;;;;;;;;4918388;29;20052;-87
2021/04/11 14:35:20;;;;;;;5.97;2.00;;;10.20;70.30;;;;;;4928787;29;20389;-85
2021/04/11 14:37:54;;;;;;;4.80;2.63;;;;;;;;;;4915778;29;20051;-85